Time;durP1;ratioP1;P1;durP2;ratioP2;P2;SDS_P1;SDS_P2;PMS_P1;PMS_P2;Temp;Humidity;BMP_temperature;BMP_pressure;BME280_temperature;BME280_humidity;BME280_pressure;Samples;Min_cycle;Max_cycle;Signal;HPM_P1;HPM_P2
2022/12/09 07:10:56;;;;;;;;;10.00;8.25;;;;;17.59;43.63;100245.88;5115942;27;45501;-71
2022/12/09 07:13:22;;;;;;;;;8.00;6.50;;;;;17.96;44.15;100240.75;5116883;27;45433;-71
2022/12/09 07:15:47;;;;;;;;;5.25;5.25;;;;;18.53;44.67;100256.06;5118533;27;45480;-72
2022/12/09 07:18:12;;;;;;;;;8.25;7.00;;;;;19.14;44.24;100251.13;5110061;27;45334;-72
2022/12/09 07:20:38;;;;;;;;;7.75;5.50;;;;;19.72;44.10;100243.63;5103703;27;45471;-72
2022/12/09 07:23:03;;;;;;;;;5.75;5.50;;;;;20.29;43.82;100246.91;5097037;27;45521;-72
2022/12/09 07:25:28;;;;;;;;;6.50;6.25;;;;;20.80;43.57;100255.09;5109774;27;45517;-72
2022/12/09 07:27:54;;;;;;;;;8.00;6.25;;;;;21.23;43.08;100258.81;5110310;27;45531;-72
2022/12/09 07:30:19;;;;;;;;;10.00;8.50;;;;;21.59;42.94;100255.84;5110610;27;47939;-72
2022/12/09 07:32:44;;;;;;;;;5.75;5.00;;;;;21.86;43.07;100245.72;5111333;27;45294;-73
2022/12/09 07:35:09;;;;;;;;;6.25;6.00;;;;;22.21;42.25;100250.94;5112274;27;45564;-74
2022/12/09 07:37:35;;;;;;;;;5.67;5.67;;;;;22.48;42.54;100249.69;5111071;27;45836;-73
2022/12/09 07:40:00;;;;;;;;;8.33;7.67;;;;;22.75;41.92;100258.44;5109501;27;46237;-73
2022/12/09 07:42:25;;;;;;;;;7.33;6.00;;;;;22.96;42.06;100254.28;5121953;27;45427;-73
2022/12/09 07:44:51;;;;;;;;;5.00;5.00;;;;;23.17;41.82;100255.50;5108686;27;45472;-74
2022/12/09 07:47:16;;;;;;;;;6.00;6.00;;;;;23.34;41.49;100253.56;5110905;27;45334;-75
2022/12/09 07:49:42;;;;;;;;;6.33;6.33;;;;;23.51;41.17;100258.91;5111868;27;46395;-74
2022/12/09 07:52:07;;;;;;;;;4.67;4.67;;;;;23.64;41.40;100258.28;5110772;27;45428;-74
2022/12/09 07:54:32;;;;;;;;;9.00;6.67;;;;;23.77;41.17;100263.97;5092829;27;45601;-74
2022/12/09 07:56:58;;;;;;;;;5.00;5.00;;;;;23.89;41.10;100260.81;5107680;27;45893;-75
2022/12/09 07:59:23;;;;;;;;;7.00;5.33;;;;;23.99;41.19;100263.28;5104481;27;46941;-75
2022/12/09 08:01:49;;;;;;;;;5.00;4.00;;;;;24.05;40.64;100263.38;5114374;27;45721;-75
2022/12/09 08:04:14;;;;;;;;;6.00;4.33;;;;;24.15;40.65;100275.88;5108626;27;45506;-75
2022/12/09 08:06:39;;;;;;;;;5.00;4.00;;;;;24.16;40.47;100261.28;5109092;27;45489;-75
2022/12/09 08:09:08;;;;;;;;;5.33;5.33;;;;;24.29;40.52;100268.78;5110782;27;45600;-74
2022/12/09 08:11:34;;;;;;;;;3.67;3.67;;;;;24.34;40.15;100274.47;5098084;27;45893;-75
2022/12/09 08:14:02;;;;;;;;;5.00;5.00;;;;;24.42;40.21;100265.41;5103939;27;45557;-75
2022/12/09 08:16:27;;;;;;;;;6.00;6.00;;;;;24.48;40.28;100270.94;5106916;27;45450;-74
2022/12/09 08:18:54;;;;;;;;;4.33;3.67;;;;;24.53;39.67;100285.81;5111072;27;45750;-73
2022/12/09 08:21:26;;;;;;;;;6.33;5.33;;;;;24.59;39.98;100266.06;5103249;27;45694;-73
2022/12/09 08:23:54;;;;;;;;;8.00;5.00;;;;;24.62;39.91;100263.00;5100156;27;45489;-73
2022/12/09 08:26:22;;;;;;;;;5.00;4.67;;;;;24.68;39.95;100274.97;5091855;27;45536;-74
2022/12/09 08:28:48;;;;;;;;;6.00;4.67;;;;;24.70;39.64;100278.31;5090223;27;46412;-76
2022/12/09 08:31:17;;;;;;;;;5.67;5.67;;;;;24.71;39.48;100275.44;5092966;27;45479;-76
2022/12/09 08:33:42;;;;;;;;;6.33;4.00;;;;;24.69;39.20;100282.06;5091115;27;45604;-75
2022/12/09 08:36:18;;;;;;;;;5.67;5.67;;;;;24.68;39.55;100275.78;5094568;27;45431;-75
2022/12/09 08:38:44;;;;;;;;;4.67;4.67;;;;;24.64;39.09;100274.47;5096408;27;45366;-74
2022/12/09 08:41:13;;;;;;;;;8.00;5.00;;;;;24.64;39.12;100281.81;5097035;27;45571;-77
2022/12/09 08:43:39;;;;;;;;;5.00;4.00;;;;;24.62;39.17;100279.28;5093169;27;45906;-77
2022/12/09 08:46:04;;;;;;;;;5.67;5.67;;;;;24.60;39.02;100281.31;5088238;27;45479;-78
2022/12/09 08:48:30;;;;;;;;;6.00;6.00;;;;;24.58;38.93;100281.53;5088796;27;46638;-77
2022/12/09 08:50:56;;;;;;;;;4.67;4.67;;;;;24.54;38.85;100280.22;5096818;27;45357;-77
2022/12/09 08:53:21;;;;;;;;;5.67;5.67;;;;;24.50;38.66;100275.31;5084848;27;45353;-77
2022/12/09 08:55:46;;;;;;;;;4.00;4.00;;;;;24.47;38.68;100288.25;5107607;27;45343;-75
2022/12/09 08:58:11;;;;;;;;;5.00;5.00;;;;;24.45;38.68;100278.63;5083603;27;52058;-76
2022/12/09 09:00:37;;;;;;;;;3.33;3.33;;;;;24.44;38.56;100282.34;5089406;27;45843;-76
2022/12/09 09:03:03;;;;;;;;;5.00;5.00;;;;;24.46;38.47;100280.28;5081734;27;45534;-77
2022/12/09 09:05:28;;;;;;;;;6.00;4.33;;;;;24.44;38.34;100280.47;5091023;27;45815;-75
2022/12/09 09:07:54;;;;;;;;;4.00;4.00;;;;;24.42;38.45;100287.09;5096125;27;45788;-81
2022/12/09 09:10:19;;;;;;;;;5.00;5.00;;;;;24.42;38.19;100287.09;5095908;27;45573;-74
2022/12/09 09:12:44;;;;;;;;;3.00;3.00;;;;;24.42;38.31;100297.97;5094024;27;45766;-75
2022/12/09 09:15:10;;;;;;;;;4.00;4.00;;;;;24.44;38.44;100294.03;5095547;27;45395;-75
2022/12/09 09:17:35;;;;;;;;;5.67;4.00;;;;;24.52;38.43;100295.00;5091285;27;46243;-75
2022/12/09 09:20:00;;;;;;;;;6.33;5.00;;;;;24.57;38.40;100298.81;5099728;27;45879;-74
2022/12/09 09:22:26;;;;;;;;;5.33;3.33;;;;;24.64;38.46;100296.19;5089785;27;45318;-72
2022/12/09 09:24:52;;;;;;;;;4.00;4.00;;;;;24.74;38.38;100306.78;5098201;27;45553;-73
2022/12/09 09:27:18;;;;;;;;;7.67;6.00;;;;;24.78;38.21;100299.94;5099144;27;47032;-74
2022/12/09 09:29:44;;;;;;;;;4.00;4.00;;;;;24.87;38.15;100306.16;5088032;27;45392;-72
2022/12/09 09:32:09;;;;;;;;;3.00;3.00;;;;;24.95;38.06;100310.63;5093431;27;45532;-70
2022/12/09 09:34:34;;;;;;;;;5.00;4.33;;;;;24.94;38.11;100301.66;5084457;27;45541;-71
2022/12/09 09:37:00;;;;;;;;;5.00;5.00;;;;;25.08;38.36;100312.66;5092740;27;46317;-69
2022/12/09 09:39:25;;;;;;;;;3.67;3.67;;;;;25.11;38.33;100313.16;5080189;27;46377;-70
2022/12/09 09:41:55;;;;;;;;;4.67;4.33;;;;;25.22;38.18;100314.50;5095498;27;45457;-70
2022/12/09 09:44:42;;;;;;;;;4.00;4.00;;;;;25.29;38.13;100317.31;5092946;27;45575;-70
2022/12/09 09:47:18;;;;;;;;;4.00;4.00;;;;;25.38;38.00;100326.22;5093555;27;47338;-69
2022/12/09 09:49:52;;;;;;;;;4.33;2.67;;;;;25.44;37.93;100319.16;5087536;27;45305;-69
2022/12/09 09:52:21;;;;;;;;;4.00;4.00;;;;;25.50;37.95;100321.13;5096416;27;45552;-69
2022/12/09 09:54:47;;;;;;;;;3.00;3.00;;;;;25.54;37.99;100311.53;5082063;27;45530;-71
2022/12/09 09:57:21;;;;;;;;;7.00;6.67;;;;;25.59;37.89;100314.53;5083772;27;45594;-69
2022/12/09 10:00:11;;;;;;;;;5.00;5.00;;;;;25.64;38.04;100308.53;5085250;27;45869;-71
2022/12/09 10:02:57;;;;;;;;;7.00;5.67;;;;;25.64;37.46;100303.09;5083168;27;45733;-71
2022/12/09 10:05:34;;;;;;;;;5.00;5.00;;;;;25.67;37.74;100315.47;5081656;27;45560;-70
2022/12/09 10:08:27;;;;;;;;;6.00;6.00;;;;;25.67;37.65;100305.44;5091493;27;45501;-69
2022/12/09 10:11:11;;;;;;;;;7.33;7.33;;;;;25.67;37.83;100301.88;5082262;27;45545;-71
2022/12/09 10:13:56;;;;;;;;;8.00;6.67;;;;;25.67;37.52;100307.31;5085049;27;45765;-72
2022/12/09 10:16:42;;;;;;;;;10.00;6.67;;;;;25.69;37.59;100302.50;5083900;27;45599;-73
2022/12/09 10:19:18;;;;;;;;;11.00;11.00;;;;;25.67;37.79;100294.56;5088059;27;45520;-75
2022/12/09 10:21:46;;;;;;;;;6.67;6.67;;;;;25.70;37.29;100293.34;5090462;27;45498;-76
2022/12/09 10:24:20;;;;;;;;;9.33;9.33;;;;;25.72;37.54;100291.25;5087685;27;45673;-74
2022/12/09 10:27:15;;;;;;;;;9.00;8.00;;;;;25.73;37.10;100290.22;5084636;27;45527;-72
2022/12/09 10:29:53;;;;;;;;;7.67;7.00;;;;;25.73;37.45;100290.22;5081582;27;47661;-73
2022/12/09 10:32:20;;;;;;;;;11.00;8.00;;;;;25.74;37.27;100287.31;5089791;27;45479;-74
2022/12/09 10:34:47;;;;;;;;;9.33;7.67;;;;;25.77;37.58;100283.34;5080656;27;45822;-73
2022/12/09 10:37:24;;;;;;;;;7.00;7.00;;;;;25.78;36.96;100275.00;5089221;27;45390;-73
2022/12/09 10:39:57;;;;;;;;;9.67;7.00;;;;;25.84;37.15;100278.84;5092186;27;45617;-73
2022/12/09 10:45:09;;;;;;;;;8.00;8.00;;;;;25.89;37.04;100270.09;5088294;27;45916;-73
2022/12/09 10:47:35;;;;;;;;;9.00;8.00;;;;;25.91;37.26;100268.00;5083275;27;45949;-73
2022/12/09 10:50:03;;;;;;;;;11.67;8.00;;;;;25.91;36.75;100268.00;5102576;27;45394;-75
2022/12/09 10:52:44;;;;;;;;;9.67;9.00;;;;;25.90;36.77;100264.47;5082321;27;45855;-74
2022/12/09 10:55:44;;;;;;;;;11.67;10.00;;;;;25.88;36.64;100265.69;5092473;27;45477;-74
2022/12/09 10:58:16;;;;;;;;;9.67;7.67;;;;;25.93;36.96;100268.66;5086328;27;45720;-73
2022/12/09 11:00:41;;;;;;;;;7.00;7.00;;;;;25.90;37.15;100250.88;5091518;27;45613;-74
2022/12/09 11:03:25;;;;;;;;;7.33;7.33;;;;;25.93;36.89;100249.63;5089935;27;45478;-74
2022/12/09 11:05:56;;;;;;;;;7.00;6.00;;;;;25.98;37.08;100252.59;5087014;27;45593;-74
2022/12/09 11:08:22;;;;;;;;;7.67;7.67;;;;;26.01;37.05;100248.63;5093629;27;45482;-76
2022/12/09 11:10:49;;;;;;;;;10.33;9.00;;;;;26.04;37.18;100242.81;5091517;27;46433;-74
2022/12/09 11:13:18;;;;;;;;;7.67;6.00;;;;;26.11;36.58;100237.44;5090072;27;45712;-76
2022/12/09 11:15:49;;;;;;;;;8.33;6.33;;;;;26.14;36.92;100237.88;5103634;27;45515;-80
2022/12/09 11:18:17;;;;;;;;;7.33;7.33;;;;;26.18;36.80;100239.16;5081776;27;45616;-83
2022/12/09 11:20:54;;;;;;;;;8.33;6.33;;;;;26.20;36.71;100236.25;5082769;27;46773;-77
2022/12/09 11:23:20;;;;;;;;;10.67;9.00;;;;;26.16;36.67;100224.91;5082635;27;45969;-76
2022/12/09 11:26:04;;;;;;;;;9.67;7.33;;;;;26.20;36.71;100227.22;5089953;27;45812;-76
2022/12/09 11:28:31;;;;;;;;;7.33;7.33;;;;;26.20;36.60;100230.81;5083444;27;45747;-77
2022/12/09 11:30:58;;;;;;;;;8.33;7.33;;;;;26.21;36.29;100234.34;5087267;27;45414;-88
2022/12/09 11:33:33;;;;;;;;;7.67;7.00;;;;;26.16;36.62;100227.63;5102274;27;45595;-81
2022/12/09 11:35:59;;;;;;;;;8.33;6.33;;;;;26.20;36.50;100227.22;5092432;27;45436;-75
2022/12/09 11:38:33;;;;;;;;;6.00;6.00;;;;;26.17;36.67;100232.00;5089118;27;46500;-77
2022/12/09 11:41:10;;;;;;;;;6.00;6.00;;;;;26.15;36.82;100220.50;5085661;27;48536;-84
2022/12/09 11:43:43;;;;;;;;;8.33;6.00;;;;;26.13;36.44;100222.59;5082019;27;45486;-84
2022/12/09 11:46:12;;;;;;;;;7.33;7.33;;;;;26.12;36.45;100214.63;5081642;27;45667;-83
2022/12/09 11:48:39;;;;;;;;;5.00;4.67;;;;;26.05;36.69;100206.41;5081378;27;45605;-82
2022/12/09 11:51:05;;;;;;;;;6.33;6.00;;;;;26.12;36.17;100206.47;5084399;27;45522;-83
2022/12/09 11:53:39;;;;;;;;;8.00;8.00;;;;;26.18;36.61;100208.38;5090057;27;45847;-82
2022/12/09 11:56:08;;;;;;;;;8.00;8.00;;;;;26.24;36.30;100212.19;5094952;27;45535;-82
2022/12/09 11:58:47;;;;;;;;;6.67;6.67;;;;;26.27;36.65;100200.94;5090350;27;45520;-86
2022/12/09 12:01:20;;;;;;;;;5.33;5.33;;;;;26.34;36.39;100209.97;5084616;27;45363;-75
2022/12/09 12:03:51;;;;;;;;;6.67;6.67;;;;;26.38;36.44;100204.97;5090692;27;45755;-75
2022/12/09 12:06:26;;;;;;;;;5.33;5.33;;;;;26.42;36.21;100209.81;5079181;27;45472;-76
2022/12/09 12:09:12;;;;;;;;;6.00;6.00;;;;;26.45;36.40;100208.59;5082502;27;45316;-77
2022/12/09 12:11:45;;;;;;;;;4.33;4.33;;;;;26.49;35.94;100207.16;5081712;27;45481;-76
2022/12/09 12:14:15;;;;;;;;;8.33;7.00;;;;;26.52;36.58;100205.91;5088315;27;45529;-77
2022/12/09 12:17:03;;;;;;;;;4.33;4.33;;;;;26.57;36.33;100209.66;5086190;27;45552;-81
2022/12/09 12:19:40;;;;;;;;;7.67;7.00;;;;;26.56;36.17;100193.53;5088491;27;45930;-83
2022/12/09 12:22:20;;;;;;;;;5.00;5.00;;;;;26.63;36.00;100207.19;5080906;27;45499;-77
2022/12/09 12:24:51;;;;;;;;;9.00;8.00;;;;;26.65;36.31;100207.84;5081609;27;45493;-84
2022/12/09 12:27:25;;;;;;;;;4.00;4.00;;;;;26.65;35.69;100203.22;5083094;27;45429;-78
2022/12/09 12:30:12;;;;;;;;;6.00;6.00;;;;;26.64;36.34;100198.81;5082203;27;45540;-78
2022/12/09 12:32:43;;;;;;;;;7.00;7.00;;;;;26.62;36.15;100195.47;5083655;27;46278;-77
2022/12/09 12:35:36;;;;;;;;;7.67;5.67;;;;;26.63;36.18;100190.84;5097600;27;45450;-79
2022/12/09 12:38:34;;;;;;;;;8.67;7.67;;;;;26.63;36.15;100191.69;5081986;27;45523;-78
2022/12/09 12:41:12;;;;;;;;;7.33;6.00;;;;;26.65;35.82;100194.22;5106581;27;45684;-79
2022/12/09 12:47:35;;;;;;;;;6.33;5.67;;;;;26.64;35.57;100181.66;5080264;27;45528;-79
2022/12/09 12:50:27;;;;;;;;;6.33;6.00;;;;;26.66;36.03;100185.88;5087144;27;45723;-79
2022/12/09 12:53:27;;;;;;;;;5.00;5.00;;;;;26.59;35.54;100174.09;5091868;27;45388;-79
2022/12/09 12:56:13;;;;;;;;;7.00;6.00;;;;;26.64;35.76;100184.38;5026109;28;45623;-76
2022/12/09 12:58:38;;;;;;;;;7.67;6.00;;;;;26.62;35.92;100189.19;5031858;28;45859;-75
2022/12/09 13:01:41;;;;;;;;;6.00;5.67;;;;;26.59;35.59;100184.97;5030210;28;45934;-76
2022/12/09 13:04:34;;;;;;;;;5.00;3.67;;;;;26.55;35.37;100187.28;5033142;28;45434;-78
2022/12/09 13:07:10;;;;;;;;;6.67;5.00;;;;;26.54;35.38;100190.19;5044499;28;46571;-75
2022/12/09 13:09:44;;;;;;;;;5.00;5.00;;;;;26.52;35.82;100181.41;5032609;28;45521;-80
2022/12/09 13:12:18;;;;;;;;;9.00;5.33;;;;;26.51;35.96;100193.31;5029655;28;45589;-80
2022/12/09 13:14:54;;;;;;;;;9.33;6.67;;;;;26.52;35.35;100193.13;5026861;28;45468;-80
2022/12/09 13:17:25;;;;;;;;;7.33;6.00;;;;;26.55;35.82;100190.00;5029804;28;46055;-78
2022/12/09 13:19:58;;;;;;;;;5.33;5.00;;;;;26.56;35.84;100182.66;5030920;28;45587;-79
2022/12/09 13:22:44;;;;;;;;;5.33;5.33;;;;;26.58;35.57;100188.75;5029536;28;45620;-78
2022/12/09 13:25:47;;;;;;;;;7.00;6.00;;;;;26.62;35.15;100186.47;5016329;28;45751;-78
2022/12/09 13:28:23;;;;;;;;;5.67;5.67;;;;;26.60;35.20;100191.28;5021106;28;46202;-78
2022/12/09 13:30:58;;;;;;;;;7.67;6.00;;;;;26.57;35.23;100185.19;5038432;27;45752;-78
2022/12/09 13:33:37;;;;;;;;;4.00;4.00;;;;;26.39;35.53;100166.69;5095192;27;45418;-75
2022/12/09 13:36:14;;;;;;;;;5.67;5.67;;;;;26.55;35.49;100200.03;5079503;27;45422;-77
2022/12/09 13:38:41;;;;;;;;;7.00;6.00;;;;;26.52;35.40;100195.84;5091161;27;46167;-77
2022/12/09 13:41:25;;;;;;;;;5.67;5.00;;;;;26.49;35.41;100189.97;5090960;27;45630;-76
2022/12/09 13:43:53;;;;;;;;;4.67;4.67;;;;;26.46;35.57;100182.19;5081538;27;45561;-76
2022/12/09 13:46:24;;;;;;;;;9.00;6.33;;;;;26.40;35.55;100178.41;5095564;27;45455;-81
2022/12/09 13:48:52;;;;;;;;;7.67;7.33;;;;;26.38;35.91;100177.75;5093183;27;45583;-78
2022/12/09 13:51:18;;;;;;;;;4.67;4.00;;;;;26.40;35.38;100170.25;5093152;27;45544;-77
2022/12/09 13:54:01;;;;;;;;;6.00;6.00;;;;;26.41;35.44;100175.47;5090653;27;45670;-78
2022/12/09 13:56:32;;;;;;;;;5.67;5.67;;;;;26.37;36.07;100163.34;5085205;27;45516;-78
2022/12/09 13:59:27;;;;;;;;;5.00;5.00;;;;;26.42;36.21;100171.72;5096931;27;46393;-77
2022/12/09 14:01:59;;;;;;;;;4.33;2.67;;;;;26.36;35.97;100158.09;5096679;27;45446;-80
2022/12/09 14:04:34;;;;;;;;;5.00;4.33;;;;;26.47;36.09;100172.97;5079943;27;45348;-76
2022/12/09 14:07:07;;;;;;;;;6.67;4.67;;;;;26.46;35.61;100174.03;5078292;27;45453;-76
2022/12/09 14:09:45;;;;;;;;;7.67;5.00;;;;;26.49;35.43;100176.34;5093701;27;46176;-77
2022/12/09 14:12:37;;;;;;;;;6.00;5.00;;;;;26.48;35.43;100180.94;5086610;27;45587;-75
2022/12/09 14:15:24;;;;;;;;;5.00;5.00;;;;;26.49;35.55;100188.09;5081005;27;45647;-80
2022/12/09 14:17:49;;;;;;;;;4.67;4.67;;;;;26.49;35.73;100177.22;5076803;27;45542;-78
2022/12/09 14:20:21;;;;;;;;;5.33;5.33;;;;;26.49;35.98;100177.22;5092610;27;47075;-80
2022/12/09 14:23:11;;;;;;;;;4.00;4.00;;;;;26.51;35.54;100176.97;5081056;27;45458;-80
2022/12/09 14:25:37;;;;;;;;;7.67;4.33;;;;;26.50;36.20;100184.31;5080962;27;45700;-80
2022/12/09 14:28:08;;;;;;;;;4.67;4.33;;;;;26.49;35.93;100185.38;5091261;27;45514;-87
2022/12/09 14:30:33;;;;;;;;;7.33;6.67;;;;;26.49;35.99;100184.53;5083573;27;46507;-85
2022/12/09 14:33:00;;;;;;;;;6.33;6.00;;;;;26.49;35.72;100187.25;5102190;27;45378;-83
2022/12/09 14:35:43;;;;;;;;;7.33;3.67;;;;;26.44;35.50;100190.56;5111622;27;45476;-81
2022/12/09 14:38:46;;;;;;;;;5.00;5.00;;;;;26.42;36.00;100196.22;5093851;27;45387;-81
2022/12/09 14:41:11;;;;;;;;;5.67;4.00;;;;;26.39;36.02;100195.75;5084948;27;45676;-82
2022/12/09 14:43:55;;;;;;;;;4.00;4.00;;;;;26.36;35.95;100198.91;5106462;27;45530;-77
2022/12/09 14:46:23;;;;;;;;;4.33;4.00;;;;;26.35;35.85;100199.94;5089341;27;45767;-81
2022/12/09 14:49:14;;;;;;;;;5.00;5.00;;;;;26.32;36.16;100195.72;5087855;27;45414;-81
2022/12/09 14:51:47;;;;;;;;;5.00;4.33;;;;;26.30;36.10;100193.22;5092756;27;46159;-79
2022/12/09 14:54:22;;;;;;;;;7.00;3.67;;;;;26.27;35.72;100198.22;5092898;27;45421;-80
2022/12/09 14:56:50;;;;;;;;;5.00;5.00;;;;;26.29;35.92;100198.88;5090539;27;45435;-76
2022/12/09 14:59:21;;;;;;;;;4.00;4.00;;;;;26.28;35.99;100200.72;5082931;27;45517;-72
2022/12/09 15:02:07;;;;;;;;;4.00;3.67;;;;;26.27;36.13;100206.38;5080146;27;46128;-70
2022/12/09 15:04:41;;;;;;;;;6.33;5.33;;;;;26.20;35.63;100205.47;5069976;27;45710;-69
2022/12/09 15:07:11;;;;;;;;;6.33;3.33;;;;;26.14;35.96;100204.38;5072154;27;45568;-72
2022/12/09 15:09:45;;;;;;;;;5.00;5.00;;;;;26.05;35.83;100207.28;5074309;27;45887;-71
2022/12/09 15:12:11;;;;;;;;;2.67;2.67;;;;;25.94;35.70;100196.09;5082192;27;45607;-71
2022/12/09 15:14:39;;;;;;;;;3.00;3.00;;;;;25.90;35.37;100210.09;5089331;27;45716;-71
2022/12/09 15:17:06;;;;;;;;;4.00;4.00;;;;;25.84;35.65;100210.88;5090379;27;45564;-72
2022/12/09 15:19:33;;;;;;;;;2.33;2.33;;;;;25.82;35.62;100214.84;5087013;27;45905;-72
2022/12/09 15:21:59;;;;;;;;;3.67;3.00;;;;;25.78;35.47;100217.09;5087368;27;45620;-72
2022/12/09 15:24:28;;;;;;;;;4.67;4.67;;;;;25.73;35.13;100208.69;5092780;27;45629;-71
2022/12/09 15:26:59;;;;;;;;;3.33;3.33;;;;;25.71;35.13;100213.47;5084610;27;45410;-72
2022/12/09 15:29:33;;;;;;;;;4.00;4.00;;;;;25.68;35.30;100205.72;5091061;27;46821;-72
2022/12/09 15:32:00;;;;;;;;;4.00;4.00;;;;;25.64;35.27;100206.13;5091836;27;45687;-72
2022/12/09 15:34:27;;;;;;;;;5.00;5.00;;;;;25.59;35.35;100213.16;5095142;27;45400;-72
2022/12/09 15:37:05;;;;;;;;;6.33;5.00;;;;;25.56;34.86;100228.00;5086123;27;45723;-72
2022/12/09 15:39:38;;;;;;;;;2.67;2.67;;;;;25.57;35.15;100224.22;5092798;27;45972;-72
2022/12/09 15:42:09;;;;;;;;;2.67;2.67;;;;;25.55;35.55;100239.91;5096653;27;45433;-72
2022/12/09 15:44:41;;;;;;;;;4.33;4.33;;;;;25.58;35.15;100236.78;5077931;27;46484;-72
2022/12/09 15:47:37;;;;;;;;;4.67;4.67;;;;;25.58;35.30;100238.66;5080920;27;45916;-72
2022/12/09 15:50:19;;;;;;;;;4.33;4.33;;;;;25.57;35.07;100237.81;5081199;27;45493;-72
2022/12/09 15:53:03;;;;;;;;;3.67;3.67;;;;;25.54;35.02;100240.88;5078873;27;46339;-72
2022/12/09 15:55:41;;;;;;;;;5.33;5.33;;;;;25.52;34.90;100238.38;5074712;27;45903;-71
2022/12/09 15:58:11;;;;;;;;;6.00;4.67;;;;;25.50;35.01;100240.44;5090422;27;45568;-72
2022/12/09 16:00:40;;;;;;;;;3.67;3.67;;;;;25.47;34.80;100240.81;5088060;27;45612;-72
2022/12/09 16:03:07;;;;;;;;;6.00;4.67;;;;;25.45;35.17;100245.63;5093160;27;45956;-71
2022/12/09 16:05:33;;;;;;;;;5.00;5.00;;;;;25.44;34.83;100243.09;5095318;27;45651;-73
2022/12/09 16:08:00;;;;;;;;;3.00;3.00;;;;;25.42;34.91;100245.16;5094005;27;45445;-72
2022/12/09 16:10:27;;;;;;;;;5.67;5.67;;;;;25.41;34.90;100248.91;5095672;27;45494;-71
2022/12/09 16:13:11;;;;;;;;;4.67;2.67;;;;;25.39;34.73;100255.38;5092324;27;45466;-72
2022/12/09 16:15:41;;;;;;;;;2.00;2.00;;;;;25.36;34.73;100246.78;5094429;27;45390;-72
2022/12/09 16:18:15;;;;;;;;;3.00;3.00;;;;;25.31;34.89;100243.78;5089838;27;45458;-72
2022/12/09 16:20:41;;;;;;;;;5.00;5.00;;;;;25.29;35.17;100245.88;5096284;27;45450;-73
2022/12/09 16:23:19;;;;;;;;;2.33;2.33;;;;;25.29;34.86;100238.56;5095241;27;45426;-72
2022/12/09 16:25:48;;;;;;;;;4.00;4.00;;;;;25.29;34.86;100235.84;5119884;27;45752;-72
2022/12/09 16:28:22;;;;;;;;;1.67;1.67;;;;;25.27;34.87;100238.72;5096642;27;45535;-72
2022/12/09 16:30:49;;;;;;;;;5.00;4.00;;;;;25.31;34.77;100241.06;5090958;27;46162;-72
2022/12/09 16:33:18;;;;;;;;;5.00;5.00;;;;;25.29;34.67;100240.44;5094745;27;45977;-72
2022/12/09 16:35:55;;;;;;;;;4.33;4.00;;;;;25.29;34.61;100232.28;5090938;27;45607;-72
2022/12/09 16:38:21;;;;;;;;;5.00;5.00;;;;;25.34;34.66;100238.81;5093048;27;45434;-72
2022/12/09 16:40:53;;;;;;;;;3.67;3.67;;;;;25.35;34.58;100242.38;5096690;27;45421;-72
2022/12/09 16:43:21;;;;;;;;;4.00;4.00;;;;;25.29;34.64;100237.72;5090322;27;45813;-73
2022/12/09 16:45:52;;;;;;;;;5.00;4.33;;;;;25.37;34.71;100252.00;5095113;27;45451;-71
2022/12/09 16:48:22;;;;;;;;;5.67;4.00;;;;;25.36;34.40;100242.19;5092698;27;45465;-73
2022/12/09 16:51:11;;;;;;;;;4.33;4.33;;;;;25.39;34.57;100246.41;5093327;27;45549;-74
2022/12/09 16:53:44;;;;;;;;;4.00;4.00;;;;;25.38;34.50;100244.72;5089777;27;45547;-73
2022/12/09 16:56:18;;;;;;;;;5.00;5.00;;;;;25.39;34.32;100247.22;5090647;27;45839;-74
2022/12/09 16:58:44;;;;;;;;;3.67;3.67;;;;;25.38;34.49;100244.72;5093766;27;45354;-74
2022/12/09 17:01:13;;;;;;;;;4.33;4.33;;;;;25.36;34.17;100250.34;5094925;27;45660;-74
2022/12/09 17:03:49;;;;;;;;;3.33;3.33;;;;;25.35;34.65;100253.25;5088086;27;45540;-74
2022/12/09 17:06:17;;;;;;;;;4.33;4.00;;;;;25.29;34.55;100254.84;5091542;27;45473;-74
2022/12/09 17:08:43;;;;;;;;;8.00;6.00;;;;;25.28;34.81;100258.59;5091886;27;45440;-74
2022/12/09 17:11:10;;;;;;;;;5.33;3.33;;;;;25.28;34.36;100264.03;5094340;27;45344;-74
2022/12/09 17:13:36;;;;;;;;;4.67;4.00;;;;;25.30;34.37;100264.66;5092130;27;45795;-74
2022/12/09 17:16:04;;;;;;;;;4.33;4.33;;;;;25.30;34.56;100272.81;5092310;27;45556;-74
2022/12/09 17:18:30;;;;;;;;;4.00;4.00;;;;;25.32;34.47;100280.78;5090482;27;45691;-73
2022/12/09 17:21:05;;;;;;;;;4.00;4.00;;;;;25.28;34.69;100280.31;5095647;27;45481;-72
2022/12/09 17:23:31;;;;;;;;;6.33;4.00;;;;;25.31;34.28;100279.97;5089397;27;46248;-71
2022/12/09 17:26:02;;;;;;;;;14.33;6.00;;;;;25.31;34.36;100287.25;5088236;27;45473;-71
2022/12/09 17:28:30;;;;;;;;;4.67;4.67;;;;;25.30;34.10;100285.56;5090086;27;45382;-72
2022/12/09 17:31:00;;;;;;;;;5.00;5.00;;;;;25.24;34.22;100285.31;5094422;27;45482;-72
2022/12/09 17:33:29;;;;;;;;;5.00;5.00;;;;;25.25;34.23;100295.13;5095181;27;46337;-72
2022/12/09 17:35:55;;;;;;;;;3.67;3.00;;;;;25.23;34.25;100290.94;5095767;27;46158;-72
